createdAt,value
2022-08-17T00:00:43.957Z,10.10
2022-08-17T00:03:22.431Z,10.88
2022-08-17T00:05:54.375Z,11.20
2022-08-17T00:08:24.716Z,10.95
2022-08-17T00:10:53.834Z,11.10
2022-08-17T00:13:25.754Z,10.68
2022-08-17T00:15:57.864Z,11.38
2022-08-17T00:19:01.792Z,10.73
2022-08-17T00:21:23.840Z,11.88
2022-08-17T00:23:56.221Z,12.85
2022-08-17T00:26:43.464Z,12.70
2022-08-17T00:29:16.452Z,14.27
2022-08-17T00:31:48.669Z,15.43
2022-08-17T00:34:19.214Z,14.43
2022-08-17T00:36:48.733Z,14.18
2022-08-17T00:39:16.851Z,14.20
2022-08-17T00:41:45.007Z,12.52
2022-08-17T00:44:13.297Z,12.68
2022-08-17T00:46:43.602Z,16.60
2022-08-17T00:49:15.773Z,17.42
2022-08-17T00:51:47.430Z,17.07
2022-08-17T00:54:23.471Z,19.55
2022-08-17T00:56:55.083Z,17.63
2022-08-17T00:59:30.865Z,15.93
2022-08-17T01:02:00.046Z,18.35
2022-08-17T01:04:32.922Z,17.90
2022-08-17T01:07:02.771Z,16.38
2022-08-17T01:09:33.402Z,16.60
2022-08-17T01:12:01.904Z,15.50
2022-08-17T01:14:33.209Z,14.98
2022-08-17T01:17:03.984Z,15.38
2022-08-17T01:19:35.831Z,16.23
2022-08-17T01:22:18.647Z,15.70
2022-08-17T01:24:51.123Z,16.77
2022-08-17T01:27:21.051Z,18.70
2022-08-17T01:29:52.545Z,16.80
2022-08-17T01:32:21.460Z,17.73
2022-08-17T01:34:50.915Z,18.42
2022-08-17T01:37:22.306Z,16.88
2022-08-17T01:39:55.128Z,18.03
2022-08-17T01:42:27.653Z,16.57
2022-08-17T01:45:02.960Z,15.37
2022-08-17T01:47:36.003Z,12.93
2022-08-17T01:50:10.688Z,13.67
2022-08-17T01:52:43.605Z,15.23
2022-08-17T01:55:12.392Z,14.57
2022-08-17T01:57:45.475Z,16.10
2022-08-17T02:00:15.169Z,16.40
2022-08-17T02:02:45.927Z,14.40
2022-08-17T02:05:14.939Z,15.70
2022-08-17T02:07:59.433Z,15.20
2022-08-17T02:10:33.750Z,15.60
2022-08-17T02:13:03.340Z,14.07
2022-08-17T02:15:34.737Z,16.03
2022-08-17T02:18:03.145Z,14.87
2022-08-17T02:20:41.934Z,14.13
2022-08-17T02:23:14.412Z,12.53
2022-08-17T02:25:44.917Z,12.87
2022-08-17T02:28:16.592Z,13.00
2022-08-17T02:30:59.554Z,12.33
2022-08-17T02:33:42.110Z,12.70
2022-08-17T02:36:14.767Z,11.70
2022-08-17T02:38:44.639Z,11.83
2022-08-17T02:41:15.481Z,12.57
2022-08-17T02:43:46.655Z,11.13
2022-08-17T02:46:14.861Z,11.47
2022-08-17T02:48:43.013Z,11.68
2022-08-17T02:51:11.330Z,10.15
2022-08-17T02:53:42.069Z,10.65
2022-08-17T02:56:11.568Z,11.20
2022-08-17T02:58:42.043Z,11.47
2022-08-17T03:01:12.667Z,11.47
2022-08-17T03:03:41.502Z,10.73
2022-08-17T03:06:12.209Z,11.33
2022-08-17T03:08:42.640Z,11.47
2022-08-17T03:11:14.532Z,11.13
2022-08-17T03:13:42.724Z,11.50
2022-08-17T03:16:11.024Z,11.40
2022-08-17T03:18:39.257Z,11.37
2022-08-17T03:21:09.181Z,11.57
2022-08-17T03:23:41.068Z,11.30
2022-08-17T03:26:15.308Z,11.20
2022-08-17T03:28:45.273Z,10.67
2022-08-17T03:31:13.380Z,10.97
2022-08-17T03:33:45.980Z,10.90
2022-08-17T03:36:17.084Z,11.00
2022-08-17T03:38:45.296Z,10.57
2022-08-17T03:41:13.969Z,10.60
2022-08-17T03:43:45.903Z,10.20
2022-08-17T03:46:35.063Z,10.60
2022-08-17T03:49:23.853Z,11.00
2022-08-17T03:52:10.142Z,10.83
2022-08-17T03:54:58.642Z,12.23
2022-08-17T03:57:27.286Z,12.30
2022-08-17T03:59:59.792Z,13.57
2022-08-17T04:02:30.840Z,12.93
2022-08-17T04:04:59.739Z,13.43
2022-08-17T04:07:32.642Z,12.97
2022-08-17T04:10:01.451Z,13.33
2022-08-17T04:12:31.371Z,12.93
2022-08-17T04:15:03.565Z,14.27
2022-08-17T04:17:31.790Z,12.90
2022-08-17T04:19:59.996Z,12.63
2022-08-17T04:22:34.253Z,11.70
2022-08-17T04:25:07.701Z,12.27
2022-08-17T04:27:38.555Z,12.00
2022-08-17T04:30:09.699Z,11.73
2022-08-17T04:33:04.099Z,12.97
2022-08-17T04:35:36.887Z,12.50
2022-08-17T04:38:05.318Z,11.70
2022-08-17T04:40:53.708Z,12.40
2022-08-17T04:43:23.668Z,11.23
2022-08-17T04:45:56.833Z,12.73
2022-08-17T04:48:35.625Z,11.97
2022-08-17T04:51:10.637Z,12.60
2022-08-17T04:53:40.397Z,12.10
2022-08-17T04:56:11.787Z,12.57
2022-08-17T04:58:45.856Z,13.40
2022-08-17T05:01:23.839Z,12.40
2022-08-17T05:03:53.686Z,12.33
2022-08-17T05:06:24.701Z,12.17
2022-08-17T05:08:53.048Z,12.00
2022-08-17T05:11:22.191Z,13.53
2022-08-17T05:13:53.441Z,12.80
2022-08-17T05:16:24.618Z,13.47
2022-08-17T05:18:53.057Z,16.50
2022-08-17T05:21:23.077Z,14.00
2022-08-17T05:23:56.193Z,14.33
2022-08-17T05:26:26.913Z,13.83
2022-08-17T05:29:02.505Z,15.03
2022-08-17T05:31:32.656Z,14.23
2022-08-17T05:34:00.934Z,14.67
2022-08-17T05:36:41.933Z,14.47
2022-08-17T05:39:16.215Z,14.67
2022-08-17T05:41:48.984Z,14.13
2022-08-17T05:44:19.433Z,14.50
2022-08-17T05:46:53.232Z,15.20
2022-08-17T05:49:28.356Z,14.83
2022-08-17T05:52:12.615Z,15.00
2022-08-17T05:54:56.005Z,15.63
2022-08-17T05:57:47.623Z,14.00
2022-08-17T06:00:30.360Z,14.77
2022-08-17T06:03:19.169Z,16.60
2022-08-17T06:06:15.339Z,16.70
2022-08-17T06:08:51.623Z,14.80
2022-08-17T06:11:26.672Z,13.53
2022-08-17T06:14:20.015Z,14.20
2022-08-17T06:16:56.743Z,14.20
2022-08-17T06:19:34.512Z,14.60
2022-08-17T06:22:05.789Z,15.83
2022-08-17T06:24:38.903Z,15.17
2022-08-17T06:27:13.235Z,14.67
2022-08-17T06:29:50.873Z,13.53
2022-08-17T06:32:21.386Z,13.23
2022-08-17T06:34:51.115Z,13.30
2022-08-17T06:37:37.210Z,13.47
2022-08-17T06:40:32.007Z,14.10
2022-08-17T06:43:14.261Z,12.97
2022-08-17T06:45:49.548Z,13.68
2022-08-17T06:48:25.109Z,11.60
2022-08-17T06:51:00.000Z,12.43
2022-08-17T06:53:37.831Z,12.00
2022-08-17T06:56:11.528Z,13.43
2022-08-17T06:58:43.340Z,12.70
2022-08-17T07:01:14.846Z,12.33
2022-08-17T07:03:53.558Z,12.43
2022-08-17T07:06:28.115Z,12.03
2022-08-17T07:09:02.592Z,12.18
2022-08-17T07:11:35.060Z,11.43
2022-08-17T07:14:17.481Z,11.65
2022-08-17T07:16:49.283Z,11.95
2022-08-17T07:19:23.569Z,13.17
2022-08-17T07:22:01.615Z,12.27
2022-08-17T07:24:39.322Z,12.63
2022-08-17T07:27:20.888Z,12.82
2022-08-17T07:29:54.699Z,12.23
2022-08-17T07:32:27.680Z,12.35
2022-08-17T07:35:12.973Z,11.83
2022-08-17T07:37:51.007Z,11.52
2022-08-17T07:40:29.685Z,11.07
2022-08-17T07:43:23.887Z,10.50
2022-08-17T07:46:23.079Z,8.93
2022-08-17T07:48:56.741Z,8.80
2022-08-17T07:51:31.227Z,8.02
2022-08-17T07:54:14.556Z,8.32
2022-08-17T07:56:46.953Z,7.03
2022-08-17T07:59:23.219Z,6.70
2022-08-17T08:02:06.146Z,6.38
2022-08-17T08:04:59.377Z,5.32
2022-08-17T08:07:32.056Z,5.68
2022-08-17T08:10:10.891Z,5.60
2022-08-17T08:12:44.407Z,6.10
2022-08-17T08:15:19.524Z,5.50
2022-08-17T08:17:52.149Z,5.40
2022-08-17T08:20:51.236Z,5.40
2022-08-17T08:23:29.546Z,5.15
2022-08-17T08:26:13.140Z,4.90
2022-08-17T08:28:52.486Z,4.60
2022-08-17T08:31:27.152Z,5.30
2022-08-17T08:34:06.523Z,4.93
2022-08-17T08:36:56.627Z,4.60
2022-08-17T08:39:44.881Z,4.55
2022-08-17T08:42:23.574Z,4.43
2022-08-17T08:45:04.756Z,5.32
2022-08-17T08:47:53.244Z,5.00
2022-08-17T08:50:37.956Z,5.63
2022-08-17T08:53:21.344Z,5.10
2022-08-17T08:55:55.597Z,4.95
2022-08-17T08:58:41.350Z,4.47
2022-08-17T09:01:19.102Z,4.40
2022-08-17T09:04:24.108Z,4.53
2022-08-17T09:07:07.245Z,4.55
2022-08-17T09:09:48.984Z,4.40
2022-08-17T09:12:25.542Z,4.40
2022-08-17T09:15:05.007Z,4.35
2022-08-17T09:17:40.937Z,4.25
2022-08-17T09:20:27.609Z,4.00
2022-08-17T09:23:03.955Z,4.20
2022-08-17T09:25:45.679Z,4.20
2022-08-17T09:28:20.245Z,4.28
2022-08-17T09:30:53.488Z,4.55
2022-08-17T09:33:26.204Z,4.18
2022-08-17T09:36:00.216Z,4.25
2022-08-17T09:38:33.210Z,3.92
2022-08-17T09:41:10.864Z,3.90
2022-08-17T09:43:45.752Z,4.40
2022-08-17T09:46:19.617Z,4.45
2022-08-17T09:48:58.039Z,4.15
2022-08-17T09:51:33.495Z,4.20
2022-08-17T09:54:34.832Z,4.30
2022-08-17T09:57:25.862Z,3.88
2022-08-17T10:00:00.247Z,3.50
2022-08-17T10:02:56.052Z,3.35
2022-08-17T10:05:30.544Z,3.67
2022-08-17T10:08:08.625Z,3.75
2022-08-17T10:10:43.111Z,3.38
2022-08-17T10:13:32.413Z,3.45
2022-08-17T10:16:15.293Z,3.60
2022-08-17T10:18:56.793Z,3.80
2022-08-17T10:21:44.075Z,4.45
2022-08-17T10:24:34.353Z,3.10
2022-08-17T10:27:05.284Z,3.25
2022-08-17T10:29:48.578Z,3.83
2022-08-17T10:32:26.531Z,3.40
2022-08-17T10:35:25.989Z,3.53
2022-08-17T10:38:30.304Z,3.42
2022-08-17T10:41:08.032Z,2.92
2022-08-17T10:43:55.840Z,3.05
2022-08-17T10:46:53.980Z,3.33
2022-08-17T10:49:29.438Z,2.92
2022-08-17T10:52:01.504Z,3.20
2022-08-17T10:55:16.652Z,3.10
2022-08-17T10:57:50.201Z,3.38
2022-08-17T11:00:54.957Z,3.78
2022-08-17T11:03:27.604Z,3.10
2022-08-17T11:06:06.876Z,3.30
2022-08-17T11:08:59.355Z,3.72
2022-08-17T11:11:54.399Z,3.10
2022-08-17T11:14:49.669Z,2.90
2022-08-17T11:17:41.509Z,2.90
2022-08-17T11:20:34.738Z,2.80
2022-08-17T11:23:37.546Z,3.17
2022-08-17T11:26:26.101Z,3.20
2022-08-17T11:29:01.405Z,2.80
2022-08-17T11:31:38.624Z,2.92
2022-08-17T11:34:15.111Z,3.17
2022-08-17T11:37:04.687Z,3.05
2022-08-17T11:39:46.519Z,3.20
2022-08-17T11:42:31.411Z,3.30
2022-08-17T11:45:03.680Z,2.85
2022-08-17T11:48:23.900Z,3.30
2022-08-17T11:51:08.489Z,2.75
2022-08-17T11:57:00.129Z,3.10
2022-08-17T12:00:03.147Z,3.38
2022-08-17T12:02:48.080Z,3.38
2022-08-17T12:05:33.180Z,3.15
2022-08-17T12:08:11.797Z,3.10
2022-08-17T12:10:55.335Z,2.95
2022-08-17T12:13:27.323Z,3.63
2022-08-17T12:16:03.503Z,3.22
2022-08-17T12:18:37.604Z,3.72
2022-08-17T12:21:18.898Z,3.80
2022-08-17T12:23:56.658Z,3.33
2022-08-17T12:26:31.337Z,3.40
2022-08-17T12:29:02.770Z,3.00
2022-08-17T12:31:37.721Z,3.20
2022-08-17T12:34:06.435Z,3.30
2022-08-17T12:36:36.353Z,3.40
2022-08-17T12:39:12.872Z,2.90
2022-08-17T12:41:46.980Z,3.13
2022-08-17T12:44:19.178Z,3.08
2022-08-17T12:46:53.739Z,3.47
2022-08-17T12:49:26.385Z,4.05
2022-08-17T12:52:06.026Z,4.82
2022-08-17T12:54:46.845Z,5.57
2022-08-17T12:57:18.038Z,6.07
2022-08-17T12:59:50.133Z,6.65
2022-08-17T13:02:29.880Z,6.53
2022-08-17T13:05:01.419Z,6.85
2022-08-17T13:07:37.284Z,6.13
2022-08-17T13:10:08.169Z,6.72
2022-08-17T13:12:37.358Z,6.22
2022-08-17T13:15:08.424Z,6.72
2022-08-17T13:17:40.544Z,8.20
2022-08-17T13:20:16.034Z,10.88
2022-08-17T13:22:45.128Z,9.80
2022-08-17T13:25:17.547Z,11.93
2022-08-17T13:27:50.844Z,9.82
2022-08-17T13:30:23.861Z,7.90
2022-08-17T13:32:57.557Z,6.82
2022-08-17T13:35:45.880Z,7.03
2022-08-17T13:38:40.531Z,5.63
2022-08-17T13:41:08.889Z,5.35
2022-08-17T13:43:45.680Z,5.40
2022-08-17T13:46:21.869Z,5.45
2022-08-17T13:49:06.218Z,5.22
2022-08-17T13:51:43.851Z,5.40
2022-08-17T13:54:26.110Z,4.70
2022-08-17T13:56:58.653Z,4.97
2022-08-17T13:59:54.348Z,4.70
2022-08-17T14:02:27.644Z,4.53
2022-08-17T14:04:59.029Z,4.22
2022-08-17T14:07:33.836Z,4.40
2022-08-17T14:10:10.393Z,4.80
2022-08-17T14:12:40.748Z,3.97
2022-08-17T14:15:10.329Z,3.72
2022-08-17T14:17:41.215Z,4.78
2022-08-17T14:20:13.580Z,4.05
2022-08-17T14:22:45.865Z,3.97
2022-08-17T14:25:19.796Z,3.50
2022-08-17T14:27:52.674Z,3.83
2022-08-17T14:30:29.647Z,3.70
2022-08-17T14:32:58.474Z,3.65
2022-08-17T14:35:29.337Z,3.95
2022-08-17T14:38:02.083Z,3.53
2022-08-17T14:40:33.407Z,3.55
2022-08-17T14:43:01.654Z,3.42
2022-08-17T14:45:33.148Z,3.03
2022-08-17T14:48:07.725Z,4.00
2022-08-17T14:50:42.569Z,3.75
2022-08-17T14:53:13.677Z,3.38
2022-08-17T14:55:41.963Z,3.30
2022-08-17T14:58:12.838Z,3.88
2022-08-17T15:00:43.679Z,3.80
2022-08-17T15:03:12.581Z,4.00
2022-08-17T15:05:44.260Z,4.30
2022-08-17T15:08:16.553Z,3.85
2022-08-17T15:10:45.013Z,3.75
2022-08-17T15:13:18.758Z,3.10
2022-08-17T15:15:47.446Z,3.90
2022-08-17T15:18:15.823Z,4.10
2022-08-17T15:20:48.611Z,3.83
2022-08-17T15:23:18.979Z,3.50
2022-08-17T15:25:52.482Z,2.97
2022-08-17T15:28:22.745Z,2.90
2022-08-17T15:30:51.366Z,2.88
2022-08-17T15:33:29.160Z,3.20
2022-08-17T15:36:01.279Z,2.25
2022-08-17T15:38:30.247Z,2.60
2022-08-17T15:40:58.670Z,2.85
2022-08-17T15:43:32.413Z,2.40
2022-08-17T15:46:02.614Z,2.65
2022-08-17T15:48:42.089Z,2.63
2022-08-17T15:51:14.820Z,2.60
2022-08-17T15:53:44.941Z,2.50
2022-08-17T15:56:15.355Z,2.72
2022-08-17T15:58:45.160Z,2.78
2022-08-17T16:01:18.432Z,2.80
2022-08-17T16:04:01.472Z,2.47
2022-08-17T16:06:37.012Z,2.83
2022-08-17T16:09:05.391Z,2.70
2022-08-17T16:11:33.635Z,4.63
2022-08-17T16:14:04.949Z,10.50
2022-08-17T16:16:33.983Z,15.45
2022-08-17T16:19:02.324Z,18.73
2022-08-17T16:21:42.765Z,22.55
2022-08-17T16:24:14.852Z,21.55
2022-08-17T16:26:43.715Z,24.48
2022-08-17T16:29:12.040Z,21.85
2022-08-17T16:31:41.782Z,21.60
2022-08-17T16:34:17.603Z,22.52
2022-08-17T16:36:55.044Z,21.50
2022-08-17T16:39:26.891Z,20.20
2022-08-17T16:41:56.070Z,22.02
2022-08-17T16:44:25.728Z,22.70
2022-08-17T16:46:54.146Z,22.17
2022-08-17T16:49:25.756Z,23.95
2022-08-17T16:52:10.116Z,21.08
2022-08-17T16:54:46.718Z,20.70
2022-08-17T16:57:18.424Z,21.83
2022-08-17T16:59:50.327Z,21.05
2022-08-17T17:02:32.379Z,20.83
2022-08-17T17:05:06.729Z,21.73
2022-08-17T17:07:56.456Z,21.30
2022-08-17T17:10:43.530Z,20.95
2022-08-17T17:13:19.086Z,21.08
2022-08-17T17:15:56.140Z,21.35
2022-08-17T17:18:35.331Z,21.77
2022-08-17T17:21:08.374Z,21.55
2022-08-17T17:23:48.306Z,22.88
2022-08-17T17:26:46.368Z,22.75
2022-08-17T17:29:47.808Z,22.25
2022-08-17T17:32:22.556Z,21.70
2022-08-17T17:34:56.194Z,23.02
2022-08-17T17:37:33.398Z,24.20
2022-08-17T17:40:06.146Z,21.15
2022-08-17T17:42:42.815Z,24.08
2022-08-17T17:45:19.849Z,22.65
2022-08-17T17:47:48.531Z,22.90
2022-08-17T17:50:18.892Z,25.65
2022-08-17T17:52:54.255Z,28.25
2022-08-17T17:55:36.548Z,23.55
2022-08-17T17:58:22.971Z,23.77
2022-08-17T18:01:00.299Z,23.67
2022-08-17T18:03:41.026Z,24.73
2022-08-17T18:06:27.673Z,25.98
2022-08-17T18:09:10.648Z,29.85
2022-08-17T18:12:02.584Z,28.77
2022-08-17T18:14:45.260Z,25.92
2022-08-17T18:17:14.263Z,23.40
2022-08-17T18:19:45.221Z,30.55
2022-08-17T18:22:18.211Z,31.55
2022-08-17T18:24:55.764Z,34.53
2022-08-17T18:27:33.383Z,32.72
2022-08-17T18:30:23.209Z,30.88
2022-08-17T18:32:51.554Z,35.38
2022-08-17T18:35:32.862Z,33.50
2022-08-17T18:38:20.431Z,34.88
2022-08-17T18:40:59.595Z,36.25
2022-08-17T18:43:44.275Z,35.30
2022-08-17T18:46:30.144Z,30.48
2022-08-17T18:49:03.234Z,27.50
2022-08-17T18:51:40.761Z,26.73
2022-08-17T18:54:18.554Z,24.67
2022-08-17T18:56:54.683Z,24.30
2022-08-17T18:59:33.929Z,22.58
2022-08-17T19:02:38.607Z,23.77
2022-08-17T19:05:13.603Z,21.83
2022-08-17T19:07:45.514Z,20.73
2022-08-17T19:10:22.560Z,20.70
2022-08-17T19:13:00.272Z,18.27
2022-08-17T19:15:36.739Z,18.23
2022-08-17T19:18:15.707Z,19.20
2022-08-17T19:20:48.712Z,18.90
2022-08-17T19:23:24.005Z,16.95
2022-08-17T19:25:55.163Z,17.38
2022-08-17T19:28:28.880Z,16.48
2022-08-17T19:30:59.403Z,16.98
2022-08-17T19:33:31.336Z,17.58
2022-08-17T19:36:06.904Z,15.90
2022-08-17T19:38:46.458Z,14.35
2022-08-17T19:41:21.720Z,16.38
2022-08-17T19:44:07.896Z,13.30
2022-08-17T19:46:49.876Z,14.02
2022-08-17T19:49:34.469Z,14.07
2022-08-17T19:52:29.192Z,12.85
2022-08-17T19:55:07.419Z,13.02
2022-08-17T19:57:50.092Z,11.68
2022-08-17T20:00:21.106Z,11.82
2022-08-17T20:02:55.056Z,10.30
2022-08-17T20:05:28.504Z,10.32
2022-08-17T20:08:01.894Z,10.10
2022-08-17T20:10:41.685Z,10.18
2022-08-17T20:13:19.106Z,8.48
2022-08-17T20:16:04.920Z,10.35
2022-08-17T20:18:37.791Z,9.13
2022-08-17T20:21:19.747Z,8.82
2022-08-17T20:23:55.090Z,8.52
2022-08-17T20:26:27.496Z,8.40
2022-08-17T20:29:37.220Z,8.63
2022-08-17T20:32:20.140Z,8.90
2022-08-17T20:35:04.114Z,9.82
2022-08-17T20:37:38.203Z,10.35
2022-08-17T20:40:28.516Z,8.85
2022-08-17T20:42:57.800Z,8.70
2022-08-17T20:46:05.789Z,9.85
2022-08-17T20:48:39.723Z,9.43
2022-08-17T20:51:19.779Z,8.65
2022-08-17T20:54:28.841Z,9.27
2022-08-17T20:57:01.448Z,10.18
2022-08-17T21:00:01.253Z,9.73
2022-08-17T21:02:32.280Z,9.82
2022-08-17T21:05:30.352Z,10.45
2022-08-17T21:08:01.878Z,11.27
2022-08-17T21:10:36.675Z,10.38
2022-08-17T21:13:55.077Z,11.65
2022-08-17T21:16:50.285Z,10.20
2022-08-17T21:20:00.527Z,9.70
2022-08-17T21:22:49.463Z,10.73
2022-08-17T21:25:33.407Z,8.93
2022-08-17T21:28:10.058Z,9.15
2022-08-17T21:30:48.033Z,9.18
2022-08-17T21:33:27.083Z,8.98
2022-08-17T21:36:26.190Z,8.30
2022-08-17T21:39:02.528Z,8.38
2022-08-17T21:41:34.806Z,9.50
2022-08-17T21:44:11.980Z,8.90
2022-08-17T21:46:46.494Z,8.20
2022-08-17T21:49:18.204Z,7.57
2022-08-17T21:51:50.386Z,7.57
2022-08-17T21:54:30.831Z,8.57
2022-08-17T21:57:00.473Z,8.13
2022-08-17T21:59:33.096Z,8.25
2022-08-17T22:02:04.086Z,7.73
2022-08-17T22:04:35.086Z,7.47
2022-08-17T22:07:06.001Z,8.40
2022-08-17T22:09:43.044Z,8.17
2022-08-17T22:12:13.760Z,7.97
2022-08-17T22:14:52.755Z,7.57
2022-08-17T22:17:24.205Z,8.17
2022-08-17T22:19:57.770Z,8.03
2022-08-17T22:22:33.305Z,7.68
2022-08-17T22:25:05.807Z,8.13
2022-08-17T22:27:55.843Z,7.70
2022-08-17T22:30:35.164Z,7.50
2022-08-17T22:33:31.278Z,7.73
2022-08-17T22:36:24.579Z,8.17
2022-08-17T22:38:55.475Z,8.20
2022-08-17T22:41:36.753Z,8.70
2022-08-17T22:44:15.411Z,7.73
2022-08-17T22:46:55.243Z,8.33
2022-08-17T22:49:29.145Z,8.57
2022-08-17T22:52:23.436Z,8.50
2022-08-17T22:55:26.395Z,9.27
2022-08-17T22:58:12.228Z,10.33
2022-08-17T23:00:45.818Z,10.33
2022-08-17T23:03:20.344Z,11.33
2022-08-17T23:05:50.147Z,12.00
2022-08-17T23:08:21.350Z,12.33
2022-08-17T23:10:52.075Z,10.47
2022-08-17T23:13:21.287Z,11.73
2022-08-17T23:15:52.016Z,12.83
2022-08-17T23:18:23.469Z,13.10
2022-08-17T23:20:51.823Z,13.13
2022-08-17T23:23:23.589Z,13.97
2022-08-17T23:25:52.087Z,13.27
2022-08-17T23:28:21.436Z,13.30
2022-08-17T23:30:49.704Z,13.87
2022-08-17T23:33:30.938Z,13.47
2022-08-17T23:36:02.253Z,14.37
2022-08-17T23:38:33.063Z,13.53
2022-08-17T23:41:09.532Z,15.27
2022-08-17T23:43:40.477Z,14.73
2022-08-17T23:46:11.971Z,15.73
2022-08-17T23:48:42.143Z,16.07
2022-08-17T23:51:13.381Z,16.93
2022-08-17T23:53:47.295Z,19.70
2022-08-17T23:56:16.162Z,19.07
2022-08-17T23:58:45.103Z,18.37
